地図

経路データ

SID SEASON NUMBER BASIN SUBBASIN NAME ISO_TIME NATURE LAT LON WMO_WIND WMO_PRES WMO_AGENCY TRACK_TYPE DIST2LAND LANDFALL IFLAG USA_AGENCY USA_ATCF_ID USA_LAT USA_LON USA_RECORD USA_STATUS USA_WIND USA_PRES USA_SSHS USA_R34_NE USA_R34_SE USA_R34_SW USA_R34_NW USA_R50_NE USA_R50_SE USA_R50_SW USA_R50_NW USA_R64_NE USA_R64_SE USA_R64_SW USA_R64_NW USA_POCI USA_ROCI USA_RMW USA_EYE TOKYO_LAT TOKYO_LON TOKYO_GRADE TOKYO_WIND TOKYO_PRES TOKYO_R50_DIR TOKYO_R50_LONG TOKYO_R50_SHORT TOKYO_R30_DIR TOKYO_R30_LONG TOKYO_R30_SHORT TOKYO_LAND CMA_LAT CMA_LON CMA_CAT CMA_WIND CMA_PRES HKO_LAT HKO_LON HKO_CAT HKO_WIND HKO_PRES NEWDELHI_LAT NEWDELHI_LON NEWDELHI_GRADE NEWDELHI_WIND NEWDELHI_PRES NEWDELHI_CI NEWDELHI_DP NEWDELHI_POCI REUNION_LAT REUNION_LON REUNION_TYPE REUNION_WIND REUNION_PRES REUNION_TNUM REUNION_CI REUNION_RMW REUNION_R34_NE REUNION_R34_SE REUNION_R34_SW REUNION_R34_NW REUNION_R50_NE REUNION_R50_SE REUNION_R50_SW REUNION_R50_NW REUNION_R64_NE REUNION_R64_SE REUNION_R64_SW REUNION_R64_NW BOM_LAT BOM_LON BOM_TYPE BOM_WIND BOM_PRES BOM_TNUM BOM_CI BOM_RMW BOM_R34_NE BOM_R34_SE BOM_R34_SW BOM_R34_NW BOM_R50_NE BOM_R50_SE BOM_R50_SW BOM_R50_NW BOM_R64_NE BOM_R64_SE BOM_R64_SW BOM_R64_NW BOM_ROCI BOM_POCI BOM_EYE BOM_POS_METHOD BOM_PRES_METHOD NADI_LAT NADI_LON NADI_CAT NADI_WIND NADI_PRES WELLINGTON_LAT WELLINGTON_LON WELLINGTON_WIND WELLINGTON_PRES DS824_LAT DS824_LON DS824_STAGE DS824_WIND DS824_PRES TD9636_LAT TD9636_LON TD9636_STAGE TD9636_WIND TD9636_PRES TD9635_LAT TD9635_LON TD9635_WIND TD9635_PRES TD9635_ROCI NEUMANN_LAT NEUMANN_LON NEUMANN_CLASS NEUMANN_WIND NEUMANN_PRES MLC_LAT MLC_LON MLC_CLASS MLC_WIND MLC_PRES USA_GUST BOM_GUST BOM_GUST_PER REUNION_GUST REUNION_GUST_PER USA_SEAHGT USA_SEARAD_NE USA_SEARAD_SE USA_SEARAD_SW USA_SEARAD_NW STORM_SPEED STORM_DIR
1957008S19132 1957 3 SI WA NOT_NAMED 1957-01-07 12:00:00 TS -18.7000 132.300 main 0 0 O_________O___ jtwc_sh SH111957 -18.7000 132.300 -1 -18.7000 132.300 1 5 78
1957008S19132 1957 3 SI WA NOT_NAMED 1957-01-07 15:00:00 TS -18.6496 132.552 main 0 0 P_________P___ SH111957 -18.6501 132.550 -1 -18.6487 132.555 1 5 78
1957008S19132 1957 3 SI WA NOT_NAMED 1957-01-07 18:00:00 TS -18.5993 132.803 main 0 0 O_________P___ jtwc_sh SH111957 -18.6000 132.800 -1 -18.5978 132.808 1 5 78
1957008S19132 1957 3 SI WA NOT_NAMED 1957-01-07 21:00:00 TS -18.5493 133.052 main 0 0 P_________P___ SH111957 -18.5500 133.050 -1 -18.5480 133.057 1 5 78
1957008S19132 1957 3 SI WA NOT_NAMED 1957-01-08 00:00:00 TS -18.5000 133.300 main 0 0 O_________O___ jtwc_sh SH111957 -18.5000 133.300 -1 -18.5000 133.300 1 5 78
1957008S19132 1957 3 SI WA NOT_NAMED 1957-01-08 03:00:00 TS -18.4513 133.550 main 0 0 P_________P___ SH111957 -18.4500 133.557 -1 -18.4540 133.536 1 5 60
1957008S19132 1957 3 SI WA NOT_NAMED 1957-01-08 06:00:00 TS -18.2638 133.735 main 0 0 O________OP___ jtwc_sh SH111957 -18.4000 133.800 -1 -16.6000 133.100 TC 35 997 -18.4074 133.765 1 5 54
1957008S19132 1957 3 SI WA NOT_NAMED 1957-01-08 09:00:00 TS -18.1585 133.982 main 0 0 P________PP___ SH111957 -18.3575 134.007 -1 -16.9653 133.871 TC -18.3571 133.986 1 6 73
1957008S19132 1957 3 SI WA NOT_NAMED 1957-01-08 12:00:00 TS -18.1048 134.289 main 0 0 O________PO___ jtwc_sh SH111957 -18.3000 134.200 -1 -17.3239 134.645 TC -18.3000 134.200 1 6 82
1957008S19132 1957 3 SI WA NOT_NAMED 1957-01-08 15:00:00 TS -18.0664 134.633 main 0 0 P________PP___ SH111957 -18.2000 134.400 -1 -17.6716 135.420 TC -18.1942 134.310 1 6 87
1957008S19132 1957 3 SI WA NOT_NAMED 1957-01-08 18:00:00 TS -18.0729 134.957 main 0 0 O________PP___ jtwc_sh SH111957 -18.1000 134.600 -1 -18.0041 136.198 TC -18.0876 134.429 1 6 92
1957008S19132 1957 3 SP EA NOT_NAMED 1957-01-08 21:00:00 TS -18.0922 135.264 main 0 0 P________PP___ SH111957 -18.0195 134.725 -1 -18.3172 136.975 TC -18.0123 134.633 1 7 96
1957008S19132 1957 3 SP EA NOT_NAMED 1957-01-09 00:00:00 TS -18.1517 135.688 main 0 0 O________PO___ jtwc_sh SH111957 -18.0000 135.000 -1 -18.6070 137.752 TC -18.0000 135.000 1 10 100
1957008S19132 1957 3 SP EA NOT_NAMED 1957-01-09 03:00:00 TS -18.2715 136.344 main 0 0 P________PP___ SH111957 -18.0625 135.595 -1 -18.8692 138.527 TC -18.0917 135.659 1 14 102
1957008S19132 1957 3 SP EA NOT_NAMED 1957-01-09 06:00:00 TS -18.4358 137.145 main 0 0 O________OP___ jtwc_sh SH111957 -18.2000 136.400 -1 -19.1000 139.300 TC 35 996 -18.2434 136.478 1 16 103
1957008S19132 1957 3 SP EA NOT_NAMED 1957-01-09 09:00:00 TS -18.6266 138.019 main 0 0 P________PP___ SH111957 -18.3931 137.322 -1 -19.2973 140.072 TC -18.4230 137.359 1 17 103
1957008S19132 1957 3 SP EA NOT_NAMED 1957-01-09 12:00:00 TS -18.8167 138.863 main 0 0 O________PO___ jtwc_sh SH111957 -18.6000 138.200 -1 -19.4668 140.851 TC -18.6000 138.200 1 14 104
1957008S19132 1957 3 SP EA NOT_NAMED 1957-01-09 15:00:00 TS -18.9692 139.502 main 0 0 P________PP___ SH111957 -18.7641 138.788 -1 -19.6159 141.652 TC -18.7325 138.781 1 12 104
1957008S19132 1957 3 SP EA NOT_NAMED 1957-01-09 18:00:00 TS -19.1028 140.101 main 0 0 O________PP___ jtwc_sh SH111957 -18.9000 139.300 -1 -19.7519 142.484 TC -18.8595 139.319 1 12 101
1957008S19132 1957 3 SP EA NOT_NAMED 1957-01-09 21:00:00 TS -19.1924 140.720 main 0 0 P________PP___ SH111957 -18.9530 139.809 -1 -19.8817 143.363 TC -18.9820 139.897 1 14 100
1957008S19132 1957 3 SP EA NOT_NAMED 1957-01-10 00:00:00 TS -19.3280 141.525 main 0 0 O________PO___ jtwc_sh SH111957 -19.1000 140.600 -1 -20.0122 144.299 TC -19.1000 140.600 1 19 102
1957008S19132 1957 3 SP EA NOT_NAMED 1957-01-10 03:00:00 TS -19.5801 142.649 main 0 0 P________PP___ SH111957 -19.4903 141.935 -1 -20.1496 145.307 TC -19.1903 141.420 1 24 104
1957008S19132 1957 3 SP EA NOT_NAMED 1957-01-10 06:00:00 TS -19.8942 143.997 main 0 0 O________OP___ jtwc_sh SH111957 -20.0000 143.600 -1 -20.3000 146.400 TC 40 994 -19.2768 142.388 1 27 105
1957008S19132 1957 3 SP EA NOT_NAMED 1957-01-10 09:00:00 TS -20.2714 145.461 main 0 0 P________PP___ SH111957 -20.5990 145.392 -1 -20.5127 147.523 TC 40 994 -19.3751 143.536 1 29 103
1957008S19132 1957 3 SP EA NOT_NAMED 1957-01-10 12:00:00 TS -20.5548 146.959 main 0 0 O________PO___ jtwc_sh SH111957 -21.0000 147.100 -1 -20.7190 148.737 TC 40 994 -19.5000 144.900 1 27 97
1957008S19132 1957 3 SP EA NOT_NAMED 1957-01-10 15:00:00 TS -20.5864 148.318 main 0 0 P________PP___ SH111957 -20.9016 148.362 -1 -20.8910 150.057 TC 40 994 -19.6515 146.491 1 27 90
1957008S19132 1957 3 SP EA NOT_NAMED 1957-01-10 17:00:00 TS -20.5623 149.330 994 bom main 43 53 P_____O__PP___ SH111957 -20.7018 149.113 -1 -21.0000 151.000 994 -20.9725 151.005 TC 40 994 -19.7636 147.673 1 29 89
1957008S19132 1957 3 SP EA NOT_NAMED 1957-01-10 18:00:00 TS -20.5606 149.892 main 91 91 O_____P__OP___ jtwc_sh SH111957 -20.6000 149.500 -1 -21.0008 151.447 994 -21.0000 151.500 TC 40 994 -19.8221 148.291 1 30 89
1957008S19132 1957 3 SP EA NOT_NAMED 1957-01-10 21:00:00 TS -20.5150 151.453 main 228 228 P_____P__PP___ SH111957 -20.3373 150.747 -1 -21.0004 152.880 994 -21.0155 153.028 TC 40 994 -20.0059 150.221 1 31 89
1957008S19132 1957 3 SP EA NOT_NAMED 1957-01-10 23:00:00 TS -20.5155 152.605 994 bom main 289 296 P_____O__PP___ SH111957 -20.2193 151.680 -1 -21.0000 154.000 994 4 -21.0049 154.126 TC 40 994 -20.1342 151.540 1 32 90
1957008S19132 1957 3 SP EA NOT_NAMED 1957-01-11 00:00:00 TS -20.5200 153.187 main 334 334 O_____P__OO___ jtwc_sh SH111957 -20.2000 152.200 -1 -20.9998 154.633 994 -21.0000 154.700 TC 40 994 -20.2000 152.200 1 35 93
1957008S19132 1957 3 SP EA NOT_NAMED 1957-01-11 03:00:00 TS -20.6180 155.080 main 492 492 P_____P__PP___ SH111957 -20.3399 154.001 -1 -20.9980 156.683 994 -20.9966 156.563 TC 40 994 -20.4157 154.152 1 36 94
1957008S19132 1957 3 SP EA NOT_NAMED 1957-01-11 05:00:00 TS -20.7169 156.387 994 bom main 557 563 P_____O__PP___ SH111957 -20.5120 155.326 -1 -21.0000 158.000 994 -20.9971 157.809 TC 40 994 -20.5636 155.473 1 36 95
1957008S19132 1957 3 SP EA NOT_NAMED 1957-01-11 06:00:00 TS -20.7671 157.013 main 586 555 O_____P__OP___ jtwc_sh SH111957 -20.6000 156.000 -1 -20.9993 158.529 994 -21.0000 158.400 TC 40 994 -20.6361 156.134 1 33 95
1957008S19132 1957 3 SP EA NOT_NAMED 1957-01-11 09:00:00 TS -20.8957 158.756 main 545 392 P_____P__PP___ SH111957 -20.8135 157.992 -1 -21.0113 159.863 994 -21.0023 159.832 TC 40 994 -20.8379 158.100 1 32 94
1957008S19132 1957 3 SP MM NOT_NAMED 1957-01-11 12:00:00 TS -21.0165 160.409 main 382 226 O_____P__PO___ jtwc_sh SH111957 -21.0000 160.000 -1 -21.0531 160.989 994 -21.0295 161.057 TC 40 994 -21.0000 160.000 1 31 94
1957008S19132 1957 3 SP MM NOT_NAMED 1957-01-11 15:00:00 TS -21.1201 162.076 main 216 129 P_____P__PP___ SH111957 -21.1298 162.032 -1 -21.1297 162.127 994 -21.0933 162.254 TC 40 994 -21.1178 161.932 1 31 94
1957008S19132 1957 3 SP MM NOT_NAMED 1957-01-11 17:00:00 TS -21.1798 163.184 994 bom main 129 85 P_____O__PP___ SH111957 -21.1833 163.310 -1 -21.2000 163.000 994 -21.1595 163.124 TC 40 994 -21.1727 163.175 1 32 93
1957008S19132 1957 3 SP MM NOT_NAMED 1957-01-11 18:00:00 TS -21.2090 163.770 main 76 0 O_____P__OP___ jtwc_sh SH111957 -21.2000 163.900 -1 -21.2504 163.636 994 -21.2000 163.600 TC 40 994 -21.1924 163.772 1 32 92
1957008S19132 1957 3 SP MM NOT_NAMED 1957-01-11 21:00:00 TS -21.2716 165.477 main 0 0 P_____P__PP___ SH111957 -21.2288 165.530 -1 -21.4053 165.578 994 -21.3451 165.217 TC 40 994 -21.2201 165.426 1 29 91
1957008S19132 1957 3 SP MM NOT_NAMED 1957-01-12 00:00:00 TS -21.2600 166.840 994 bom main 60 60 O_____O__OO___ jtwc_sh SH111957 -21.2000 166.800 -1 -21.5000 167.000 994 -21.5000 167.000 TC 40 994 -21.2000 166.800 1 21 87
1957008S19132 1957 3 SP MM NOT_NAMED 1957-01-12 03:00:00 TS -21.1502 167.695 995 bom main 130 130 P_____O___P___ SH111957 -21.1130 167.670 -1 -21.5000 167.500 995 TC -21.1370 167.795 1 15 80
1957008S19132 1957 3 SP MM NOT_NAMED 1957-01-12 06:00:00 TS -21.0135 168.371 main 197 197 O_________P___ jtwc_sh SH111957 -21.0000 168.300 -1 -21.0406 168.514 1 12 79
1957008S19132 1957 3 SP MM NOT_NAMED 1957-01-12 09:00:00 TS -20.9127 168.992 main 252 252 P_________P___ SH111957 -20.9069 168.950 -1 -20.9244 169.076 1 12 79
1957008S19132 1957 3 SP MM NOT_NAMED 1957-01-12 12:00:00 TS -20.8000 169.600 main 311 311 O_________O___ jtwc_sh SH111957 -20.8000 169.600 -1 -20.8000 169.600 1 13 79
1957008S19132 1957 3 SP MM NOT_NAMED 1957-01-12 15:00:00 TS -20.6582 170.348 main 380 380 P_________P___ SH111957 -20.6502 170.365 -1 -20.6742 170.313 1 14 78
1957008S19132 1957 3 SP MM NOT_NAMED 1957-01-12 18:00:00 TS -20.5143 171.068 main 465 465 O_________P___ jtwc_sh SH111957 -20.5000 171.100 -1 -20.5429 171.005 1 13 78
1957008S19132 1957 3 SP MM NOT_NAMED 1957-01-12 21:00:00 TS -20.3998 171.688 main 526 526 P_________P___ SH111957 -20.3923 171.710 -1 -20.4150 171.645 1 11 79
1957008S19132 1957 3 SP MM NOT_NAMED 1957-01-13 00:00:00 TS -20.3000 172.200 main 579 542 O_________O___ jtwc_sh SH111957 -20.3000 172.200 -1 -20.3000 172.200 1 9 76
1957008S19132 1957 3 SP MM NOT_NAMED 1957-01-13 03:00:00 TS -20.1938 172.599 main 542 509 P_________P___ SH111957 -20.1922 172.580 -1 -20.1971 172.636 1 7 74
1957008S19132 1957 3 SP MM NOT_NAMED 1957-01-13 06:00:00 TS -20.1036 172.930 main 509 476 O_________P___ jtwc_sh SH111957 -20.1000 172.900 -1 -20.1108 172.989 1 6 76
1957008S19132 1957 3 SP MM NOT_NAMED 1957-01-13 09:00:00 TS -20.0430 173.266 main 467 439 P_________P___ SH111957 -20.0424 173.250 -1 -20.0443 173.298 1 6 81
1957008S19132 1957 3 SP MM NOT_NAMED 1957-01-13 12:00:00 TS -20.0000 173.600 main 439 406 O_________O___ jtwc_sh SH111957 -20.0000 173.600 -1 -20.0000 173.600 1 6 80
1957008S19132 1957 3 SP MM NOT_NAMED 1957-01-13 15:00:00 TS -19.9357 173.939 main 406 371 P_________P___ SH111957 -19.9349 173.950 -1 -19.9371 173.918 1 6 81
1957008S19132 1957 3 SP MM NOT_NAMED 1957-01-13 18:00:00 TS -19.9005 174.280 main 371 346 O_________P___ jtwc_sh SH111957 -19.9000 174.300 -1 -19.9014 174.241 1 6 88
1957008S19132 1957 3 SP MM NOT_NAMED 1957-01-13 21:00:00 TS -19.9132 174.616 main 346 321 P_________P___ SH111957 -19.9123 174.628 -1 -19.9150 174.594 1 7 98
1957008S19132 1957 3 SP MM NOT_NAMED 1957-01-14 00:00:00 TS -20.0000 175.000 main 321 299 O_________O___ jtwc_sh SH111957 -20.0000 175.000 -1 -20.0000 175.000 1 9 107
1957008S19132 1957 3 SP MM NOT_NAMED 1957-01-14 03:00:00 TS -20.1639 175.482 main 301 286 P_________P___ SH111957 -20.1624 175.463 -1 -20.1668 175.520 1 10 113
1957008S19132 1957 3 SP MM NOT_NAMED 1957-01-14 06:00:00 TS -20.4012 176.030 main 291 286 O_________P___ jtwc_sh SH111957 -20.4000 176.000 -1 -20.4037 176.091 1 12 116
1957008S19132 1957 3 SP MM NOT_NAMED 1957-01-14 09:00:00 TS -20.6864 176.632 main 298 295 P_________P___ SH111957 -20.6852 176.615 -1 -20.6887 176.667 1 12 119
1957008S19132 1957 3 SP MM NOT_NAMED 1957-01-14 12:00:00 TS -21.0000 177.200 main 310 308 O_________O___ jtwc_sh SH111957 -21.0000 177.200 -1 -21.0000 177.200 1 11 123
1957008S19132 1957 3 SP MM NOT_NAMED 1957-01-14 15:00:00 TS -21.3015 177.643 main 337 336 P_________P___ SH111957 -21.2922 177.638 -1 -21.3200 177.654 1 10 129
1957008S19132 1957 3 SP MM NOT_NAMED 1957-01-14 18:00:00 TS -21.6148 178.013 main 369 369 O_________P___ jtwc_sh SH111957 -21.6000 178.000 -1 -21.6443 178.040 1 9 134
1957008S19132 1957 3 SP MM NOT_NAMED 1957-01-14 21:00:00 TS -21.9507 178.360 main 414 414 P_________P___ SH111957 -21.9402 178.350 -1 -21.9715 178.381 1 9 137
1957008S19132 1957 3 SP MM NOT_NAMED 1957-01-15 00:00:00 TS -22.3000 178.700 main 450 O_________O___ jtwc_sh SH111957 -22.3000 178.700 -1 -22.3000 178.700 1 9 138

IBTrACS Databaseについて

本データベースは、米国NOAAが公開する1842年以降の世界の熱帯低気圧のベストトラックデータアーカイブInternational Best Track Archive for Climate Stewardship (IBTrACS)を、ウェブで閲覧しやすい形式に変換したものです。

最終更新日:2021-12-06